Latest Weather Observations for Kuitpo

IDS60901

Issued at 10:41 am CST Monday 30 May 2016 (issued every 10 minutes, with the page automatically refreshed every 10 minutes)

About weather observations | Map of Adelaide area stations | Latest observations for Adelaide area | Other Formats
Station Details ID: 023887 Name: KUITPO FOREST RESERVE Lat: -35.17 Lon: 138.68 Height: 365.0 m
Data from the previous 72 hours. | See also: Recent months at Kuitpo
Date/Time
CST
Tmp

°C
App
Tmp
°C
Dew
Point
°C
Rel
Hum
%
Delta-T

°C
Wind Press
QNH
hPa
Press
MSL
hPa
Rain
since
9 am
mm
Dir
 
Spd
km/h
Gust
km/h
Spd
kts
Gust
kts
30/10:30am 11.3 8.6 9.0 86 1.2 NNE 13 20 7 11 1018.7 1018.5 0.4
30/10:00am 11.0 7.9 8.9 87 1.1 NNE 15 26 8 14 1018.7 1018.5 0.2
30/09:30am 10.3 7.1 8.4 88 0.9 NNE 15 24 8 13 1018.3 1018.1 0.0
30/09:00am 9.3 5.6 8.1 92 0.6 NNE 17 30 9 16 1018.2 1018.0 0.6
30/08:30am 8.7 4.8 7.3 91 0.7 NE 17 26 9 14 1018.1 1017.9 0.6
30/08:00am 8.7 5.5 7.0 89 0.8 NNE 13 19 7 10 1018.1 1017.9 0.6
30/07:30am 9.1 5.1 6.5 84 1.2 NE 17 24 9 13 1017.8 1017.6 0.0
30/07:00am 9.6 6.3 6.3 80 1.6 NNE 13 28 7 15 1017.4 1017.2 0.0
30/06:30am 9.7 5.6 6.1 78 1.7 NNE 17 26 9 14 1017.1 1016.9 0.0
30/06:00am 10.1 6.4 6.3 77 1.8 NNE 15 26 8 14 1016.7 1016.5 0.0
30/05:30am 10.0 5.9 6.3 78 1.8 NNE 17 26 9 14 1016.6 1016.4 0.0
30/05:00am 9.4 5.7 6.1 80 1.6 NE 15 24 8 13 1016.3 1016.0 0.0
30/04:30am 9.4 6.0 6.1 80 1.5 NE 13 22 7 12 1016.4 1016.1 0.0
30/04:00am 9.3 5.9 6.0 80 1.5 NE 13 20 7 11 1016.5 1016.2 0.0
30/03:30am 9.5 6.1 6.0 79 1.6 NE 13 19 7 10 1016.6 1016.4 0.0
30/03:00am 9.1 6.1 6.0 81 1.4 NNE 11 19 6 10 1016.8 1016.6 0.0
30/02:30am 9.1 6.1 5.8 80 1.5 NE 11 17 6 9 1016.7 1016.5 0.0
30/02:00am 9.1 5.3 5.8 80 1.5 NE 15 22 8 12 1016.7 1016.5 0.0
30/01:30am 9.2 5.4 5.8 79 1.6 NE 15 24 8 13 1016.5 1016.2 0.0
30/01:00am 9.1 4.5 5.7 79 1.6 NE 19 32 10 17 1016.8 1016.6 0.0
30/12:30am 9.0 4.4 5.6 79 1.6 NE 19 28 10 15 1017.1 1016.9 0.0
30/12:00am 8.8 4.2 5.7 81 1.4 NE 19 26 10 14 1017.1 1016.9 0.0
 
Date/Time
CST
Tmp

°C
App
Tmp
°C
Dew
Point
°C
Rel
Hum
%
Delta-T

°C
Wind Press
QNH
hPa
Press
MSL
hPa
Rain
since
9 am
mm
Dir
 
Spd
km/h
Gust
km/h
Spd
kts
Gust
kts
29/11:30pm 9.0 4.5 5.9 81 1.4 NE 19 26 10 14 1017.2 1017.0 0.0
29/11:00pm 9.0 4.3 6.1 82 1.4 NE 20 30 11 16 1017.4 1017.2 0.0
29/10:30pm 8.9 4.3 6.3 84 1.2 NE 20 30 11 16 1017.3 1017.1 0.0
29/10:00pm 8.8 4.7 6.4 85 1.1 NE 17 24 9 13 1017.5 1017.3 0.0
29/09:30pm 8.8 4.4 6.4 85 1.1 NE 19 24 10 13 1017.6 1017.4 0.0
29/09:00pm 8.9 4.9 6.7 86 1.0 NE 17 28 9 15 1017.5 1017.3 0.0
29/08:30pm 9.0 5.0 6.6 85 1.1 NE 17 22 9 12 1017.6 1017.4 0.0
29/08:00pm 9.4 5.4 6.8 84 1.2 NE 17 26 9 14 1017.6 1017.4 0.0
29/07:30pm 9.6 5.7 6.9 83 1.3 NE 17 26 9 14 1017.4 1017.2 0.0
29/07:00pm 9.9 6.0 7.0 82 1.4 NE 17 20 9 11 1017.2 1017.0 0.0
29/06:30pm 10.1 7.0 7.2 82 1.4 NE 13 22 7 12 1017.0 1016.8 0.0
29/06:00pm 10.4 7.3 7.3 81 1.5 NE 13 17 7 9 1016.8 1016.6 0.0
29/05:30pm 10.6 7.5 7.1 79 1.7 NE 13 17 7 9 1016.5 1016.2 0.0
29/05:00pm 11.6 9.3 7.5 76 2.0 NE 9 15 5 8 1016.4 1016.1 0.0
29/04:30pm 11.9 9.3 7.6 75 2.1 NE 11 17 6 9 1016.2 1015.9 0.0
29/04:00pm 12.7 10.0 7.4 70 2.6 NNW 11 17 6 9 1016.2 1015.9 0.0
29/03:30pm 13.2 10.2 7.6 69 2.8 N 13 17 7 9 1016.0 1015.8 0.0
29/03:00pm 13.9 10.8 7.2 64 3.3 N 13 20 7 11 1016.0 1015.8 0.0
29/02:30pm 13.4 10.2 6.7 64 3.3 N 13 20 7 11 1016.3 1016.0 0.0
29/02:00pm 14.4 11.2 6.7 60 3.8 NNW 13 22 7 12 1016.3 1016.0 0.0
29/01:30pm 14.5 10.3 5.8 56 4.2 NNW 17 30 9 16 1016.4 1016.1 0.0
29/01:00pm 14.7 11.3 6.0 56 4.2 N 13 24 7 13 1016.7 1016.5 0.0
29/12:30pm 14.0 10.6 5.9 58 3.9 NNW 13 20 7 11 1017.0 1016.8 0.0
29/12:00pm 13.3 10.5 5.2 58 3.8 N 9 19 5 10 1017.3 1017.1 0.0
29/11:30am 13.0 11.0 7.0 67 3.0 N 7 13 4 7 1017.7 1017.5 0.0
29/11:00am 12.5 9.5 5.9 64 3.2 NE 11 15 6 8 1017.8 1017.6 0.0
29/10:30am 11.4 8.4 6.1 70 2.5 NE 11 19 6 10 1018.0 1017.8 0.0
29/10:00am 10.7 7.6 5.5 70 2.4 NE 11 17 6 9 1018.2 1018.0 0.0
29/09:30am 9.6 6.0 5.0 73 2.1 ENE 13 19 7 10 1018.1 1017.9 0.0
29/09:00am 9.0 5.3 4.6 74 2.0 NE 13 22 7 12 1018.0 1017.8 0.0
29/08:30am 8.6 4.1 4.2 74 2.0 NE 17 24 9 13 1017.8 1017.6 0.0
29/08:00am 7.6 2.4 3.5 75 1.8 NE 20 32 11 17 1017.6 1017.4 0.0
29/07:30am 7.9 2.9 3.6 74 1.9 NE 19 28 10 15 1017.6 1017.4 0.0
29/07:00am 7.5 3.3 3.6 76 1.7 NE 15 20 8 11 1017.5 1017.3 0.0
29/06:30am 7.7 3.5 3.6 75 1.8 NE 15 20 8 11 1017.3 1017.1 0.0
29/06:00am 7.6 3.0 3.6 76 1.7 NE 17 20 9 11 1017.2 1017.0 0.0
29/05:30am 7.5 2.9 3.7 77 1.7 ENE 17 24 9 13 1017.1 1016.9 0.0
29/05:00am 7.2 2.6 3.6 78 1.6 NE 17 24 9 13 1017.0 1016.8 0.0
29/04:30am 7.4 2.8 3.5 76 1.7 NE 17 24 9 13 1016.9 1016.7 0.0
29/04:00am 7.2 2.6 3.6 78 1.6 NE 17 22 9 12 1016.8 1016.6 0.0
29/03:30am 7.5 2.5 3.6 76 1.7 ENE 19 26 10 14 1016.8 1016.6 0.0
29/03:00am 7.9 2.9 3.8 75 1.8 ENE 19 24 10 13 1016.7 1016.5 0.0
29/02:30am 8.3 3.4 3.9 74 1.9 ENE 19 22 10 12 1017.0 1016.8 0.0
29/02:00am 8.4 3.5 4.2 75 1.9 ENE 19 24 10 13 1017.2 1017.0 0.0
29/01:30am 8.2 3.7 4.4 77 1.7 ENE 17 22 9 12 1017.1 1016.9 0.0
29/01:00am 8.1 3.7 5.0 81 1.4 ENE 17 20 9 11 1017.1 1016.9 0.0
29/12:30am 8.6 5.2 5.9 83 1.3 ENE 13 20 7 11 1017.3 1017.1 0.0
29/12:00am 8.7 4.6 6.3 85 1.1 ENE 17 22 9 12 1017.4 1017.2 0.0
 
Date/Time
CST
Tmp

°C
App
Tmp
°C
Dew
Point
°C
Rel
Hum
%
Delta-T

°C
Wind Press
QNH
hPa
Press
MSL
hPa
Rain
since
9 am
mm
Dir
 
Spd
km/h
Gust
km/h
Spd
kts
Gust
kts
28/11:30pm 8.8 5.5 6.4 85 1.1 ENE 13 17 7 9 1017.6 1017.4 0.0
28/11:00pm 8.9 5.6 6.3 84 1.2 NE 13 17 7 9 1017.7 1017.5 0.0
28/10:30pm 8.7 5.5 6.7 87 0.9 NE 13 17 7 9 1017.8 1017.6 0.0
28/10:00pm 9.2 5.5 6.5 83 1.3 ENE 15 19 8 10 1017.6 1017.4 0.0
28/09:30pm 8.9 5.7 6.7 86 1.0 ENE 13 19 7 10 1017.6 1017.4 0.0
28/09:00pm 9.0 5.4 6.6 85 1.1 NE 15 19 8 10 1017.6 1017.4 0.0
28/08:30pm 8.6 5.4 6.7 88 0.9 NE 13 15 7 8 1017.7 1017.5 0.0
28/08:00pm 8.4 5.1 6.4 87 0.9 NE 13 15 7 8 1017.6 1017.4 0.0
28/07:30pm 8.9 5.6 6.2 83 1.3 E 13 17 7 9 1017.4 1017.2 0.0
28/07:00pm 9.1 5.5 6.7 85 1.1 E 15 19 8 10 1017.2 1017.0 0.0
28/06:30pm 9.3 6.2 7.3 87 1.0 E 13 17 7 9 1017.1 1016.9 0.0
28/06:00pm 9.4 6.0 7.5 88 0.9 E 15 17 8 9 1016.8 1016.6 0.0
28/05:30pm 9.6 6.3 7.9 89 0.8 E 15 17 8 9 1016.5 1016.2 0.0
28/05:00pm 9.7 6.8 8.0 89 0.8 E 13 17 7 9 1016.4 1016.1 0.0
28/04:30pm 10.0 7.1 8.1 88 0.9 E 13 15 7 8 1016.2 1015.9 0.0
28/04:00pm 10.6 8.5 8.2 85 1.2 ESE 9 11 5 6 1015.9 1015.7 0.0
28/03:30pm 11.0 7.7 8.1 82 1.4 ESE 15 20 8 11 1015.7 1015.5 0.0
28/03:00pm 11.5 8.9 7.8 78 1.8 SE 11 17 6 9 1015.5 1015.3 0.0
28/02:30pm 11.7 8.7 7.6 76 2.0 ESE 13 19 7 10 1015.3 1015.1 0.0
28/02:00pm 11.9 8.4 7.0 72 2.4 ESE 15 20 8 11 1015.2 1015.0 0.0
28/01:30pm 12.9 10.7 8.0 72 2.5 ENE 9 13 5 7 1015.2 1015.0 0.0
28/01:00pm 12.2 10.3 7.7 74 2.2 E 7 17 4 9 1015.3 1015.1 0.0
28/12:30pm 11.6 8.1 7.1 74 2.2 E 15 20 8 11 1015.4 1015.2 0.0
28/12:00pm 11.4 7.8 6.7 73 2.3 ESE 15 22 8 12 1015.5 1015.3 0.0
28/11:30am 12.0 8.2 7.5 74 2.2 ESE 17 24 9 13 1015.6 1015.4 0.0
28/11:00am 11.7 7.5 7.6 76 2.0 ESE 19 26 10 14 1015.6 1015.4 0.0
28/10:30am 11.1 6.7 6.5 73 2.2 E 19 30 10 16 1015.6 1015.4 0.0
28/10:00am 11.0 6.7 7.1 77 1.9 ESE 19 32 10 17 1015.1 1014.9 0.0
28/09:30am 10.6 6.2 7.5 81 1.5 ESE 20 28 11 15 1014.9 1014.7 0.0
28/09:00am 9.9 5.7 7.5 85 1.2 ESE 19 30 10 16 1014.6 1014.4 15.0
28/08:30am 9.3 5.8 7.4 88 0.9 ESE 15 28 8 15 1014.4 1014.2 15.0
28/08:00am 8.8 5.8 7.7 93 0.5 ESE 13 19 7 10 1014.0 1013.7 14.8
28/07:30am 8.6 4.9 8.0 96 0.3 SE 17 30 9 16 1013.0 1012.8 14.8
28/07:00am 9.0 5.1 8.6 97 0.2 SE 19 28 10 15 1012.3 1012.1 14.8
28/06:30am 9.5 6.4 9.0 97 0.3 SE 15 35 8 19 1011.8 1011.5 14.8
28/06:00am 9.5 6.1 9.0 97 0.3 SE 17 32 9 17 1011.0 1010.7 14.8
28/05:30am 9.7 6.3 9.2 97 0.3 SE 17 28 9 15 1010.6 1010.3 14.8
28/05:00am 10.1 6.5 9.8 98 0.2 S 19 37 10 20 1009.9 1009.7 14.8
28/04:30am 9.6 6.3 9.5 99 0.1 SSW 17 28 9 15 1009.4 1009.1 14.6
28/04:00am 8.6 5.4 8.3 98 0.1 WSW 15 20 8 11 1009.2 1008.9 14.6
28/03:30am 8.5 5.6 8.2 98 0.1 WSW 13 17 7 9 1009.0 1008.7 14.4
28/03:00am 8.5 5.2 8.1 97 0.2 WSW 15 20 8 11 1008.9 1008.6 14.4
28/02:30am 8.6 4.9 8.0 96 0.3 WSW 17 28 9 15 1008.7 1008.4 14.4
28/02:00am 8.7 5.7 7.8 94 0.4 W 13 22 7 12 1008.5 1008.2 14.4
28/01:30am 8.5 5.1 7.7 95 0.4 WSW 15 20 8 11 1008.4 1008.1 14.4
28/01:00am 7.9 4.8 7.1 95 0.4 WSW 13 19 7 10 1008.3 1008.0 14.4
28/12:30am 8.0 4.2 7.4 96 0.3 WSW 17 22 9 12 1008.4 1008.1 14.4
28/12:00am 7.9 3.5 7.6 98 0.1 WSW 20 26 11 14 1008.3 1008.0 14.4
 
Date/Time
CST
Tmp

°C
App
Tmp
°C
Dew
Point
°C
Rel
Hum
%
Delta-T

°C
Wind Press
QNH
hPa
Press
MSL
hPa
Rain
since
9 am
mm
Dir
 
Spd
km/h
Gust
km/h
Spd
kts
Gust
kts
27/11:30pm 7.8 4.4 7.5 98 0.1 WSW 15 20 8 11 1008.3 1008.0 14.4
27/11:00pm 7.8 4.8 7.5 98 0.1 W 13 19 7 10 1008.1 1007.8 14.4
27/10:30pm 7.8 4.8 7.5 98 0.1 WSW 13 20 7 11 1008.0 1007.7 14.4
27/10:00pm 7.8 4.0 7.5 98 0.1 SW 17 26 9 14 1008.1 1007.8 14.4
27/09:30pm 7.4 2.9 7.0 97 0.2 WSW 20 35 11 19 1008.2 1007.9 13.4
27/09:00pm 7.5 3.2 6.9 96 0.3 WSW 19 32 10 17 1008.0 1007.7 13.2
27/08:30pm 7.3 2.0 6.7 96 0.3 SW 24 35 13 19 1007.6 1007.3 12.6
27/08:00pm 7.5 1.9 7.1 97 0.2 WSW 26 44 14 24 1007.4 1007.2 12.2
27/07:30pm 7.4 1.6 6.2 92 0.6 SW 26 43 14 23 1006.8 1006.5 11.4
27/07:04pm 7.8 1.8 6.9 94 0.4 SW 28 50 15 27 1006.4 1006.1 10.8
27/07:00pm 8.0 2.8 7.1 94 0.4 SW 24 50 13 27 1006.5 1006.2 10.6
27/06:34pm 8.8 2.8 7.1 89 0.8 SW 28 46 15 25 1006.0 1005.7 8.6
27/06:30pm 8.8 2.8 7.1 89 0.8 SW 28 44 15 24 1005.9 1005.6 8.6
27/06:00pm 8.8 2.7 6.6 86 1.0 WSW 28 43 15 23 1005.5 1005.2 8.4
27/05:30pm 8.7 3.3 6.5 86 1.0 WSW 24 39 13 21 1005.2 1004.9 8.4
27/05:00pm 8.4 3.8 6.4 87 0.9 WSW 20 35 11 19 1005.0 1004.7 8.4
27/04:30pm 8.4 4.4 6.5 88 0.9 WSW 17 28 9 15 1004.7 1004.3 8.0
27/04:00pm 7.7 4.4 6.6 93 0.5 W 13 20 7 11 1004.5 1004.2 8.0
27/03:30pm 7.2 1.9 5.2 87 0.9 WSW 22 35 12 19 1004.5 1004.2 7.8
27/03:00pm 9.0 4.5 7.0 87 1.0 W 20 35 11 19 1004.2 1003.9 7.6
27/02:30pm 8.4 4.7 8.0 97 0.2 W 17 28 9 15 1004.2 1003.9 7.6
27/02:00pm 7.9 5.3 7.6 98 0.1 W 11 17 6 9 1004.3 1004.0 7.6
27/01:30pm 7.6 2.8 7.3 98 0.1 WSW 22 35 12 19 1004.7 1004.3 7.2
27/01:00pm 8.6 1.9 8.2 97 0.2 WSW 33 52 18 28 1004.4 1004.1 5.8
27/12:51pm 8.8 3.8 8.2 96 0.3 W 24 46 13 25 1004.4 1004.1 4.8
27/12:30pm 9.4 6.6 8.6 95 0.4 WNW 13 22 7 12 1004.7 1004.3 1.8
27/12:00pm 9.3 5.1 8.4 94 0.4 W 20 35 11 19 1005.3 1005.0 1.6
27/11:30am 11.6 7.6 9.2 85 1.2 WNW 20 35 11 19 1005.3 1005.0 0.0
27/11:00am 11.4 6.3 9.3 87 1.1 WNW 26 46 14 25 1005.9 1005.6 0.0
27/10:54am 11.8 6.4 9.4 85 1.2 WNW 28 48 15 26 1006.0 1005.7 0.0

Latest Capital City Observations: Canberra | Sydney | Melbourne | Brisbane | Adelaide | Perth | Hobart | Darwin

Other Formats:

Comma delimited format used in spreadsheet applications
http://www.bom.gov.au/fwo/IDS60901/IDS60901.94683.axf

JavaScript Object Notation format (JSON) in row-major order
http://www.bom.gov.au/fwo/IDS60901/IDS60901.94683.json